Time;durP1;ratioP1;P1;durP2;ratioP2;P2;SDS_P1;SDS_P2;PMS_P1;PMS_P2;Temp;Humidity;BMP_temperature;BMP_pressure;BME280_temperature;BME280_humidity;BME280_pressure;Samples;Min_cycle;Max_cycle;Signal;HPM_P1;HPM_P2
2022/03/14 00:00:48;;;;;;;2.22;2.12;;;;;;;;;;1802307;78;26239;-82
2022/03/14 00:03:16;;;;;;;2.27;1.80;;;;;;;;;;1789047;79;26605;-82
2022/03/14 00:05:43;;;;;;;2.22;2.02;;;;;;;;;;1805811;78;27451;-81
2022/03/14 00:08:11;;;;;;;1.95;1.80;;;;;;;;;;1811877;78;26329;-85
2022/03/14 00:10:38;;;;;;;2.02;1.92;;;;;;;;;;1788801;78;26719;-83
2022/03/14 00:13:07;;;;;;;1.90;1.80;;;;;;;;;;1806339;79;26257;-82
2022/03/14 00:15:34;;;;;;;2.10;2.00;;;;;;;;;;1786202;79;26365;-84
2022/03/14 00:18:02;;;;;;;2.00;1.90;;;;;;;;;;1790784;79;26758;-81
2022/03/14 00:20:29;;;;;;;1.90;1.80;;;;;;;;;;1802818;79;26278;-81
2022/03/14 00:22:59;;;;;;;2.00;1.90;;;;;;;;;;1799973;79;26264;-84
2022/03/14 00:25:26;;;;;;;2.37;1.95;;;;;;;;;;1782644;79;26290;-81
2022/03/14 00:27:54;;;;;;;2.10;2.00;;;;;;;;;;1780423;79;26818;-83
2022/03/14 00:30:22;;;;;;;2.27;1.92;;;;;;;;;;1798351;78;26279;-84
2022/03/14 00:32:49;;;;;;;2.17;1.98;;;;;;;;;;1784883;79;26259;-83
2022/03/14 00:35:16;;;;;;;2.30;2.10;;;;;;;;;;1791217;78;26318;-83
2022/03/14 00:37:44;;;;;;;2.83;1.92;;;;;;;;;;1786035;78;26705;-84
2022/03/14 00:40:11;;;;;;;2.25;1.90;;;;;;;;;;1794785;79;26322;-85
2022/03/14 00:42:39;;;;;;;1.80;1.70;;;;;;;;;;1791003;80;26268;-82
2022/03/14 00:45:07;;;;;;;2.02;1.92;;;;;;;;;;1775479;79;26321;-82
2022/03/14 00:47:34;;;;;;;2.30;2.10;;;;;;;;;;1786909;79;26272;-81
2022/03/14 00:50:02;;;;;;;2.08;1.92;;;;;;;;;;1799087;78;26544;-82
2022/03/14 00:52:29;;;;;;;1.90;1.80;;;;;;;;;;1781326;78;26304;-81
2022/03/14 00:54:56;;;;;;;2.10;2.00;;;;;;;;;;1775424;79;26286;-82
2022/03/14 00:57:24;;;;;;;4.00;2.10;;;;;;;;;;1777136;79;26272;-82
2022/03/14 00:59:51;;;;;;;2.25;2.05;;;;;;;;;;1795161;79;26292;-82
2022/03/14 01:02:19;;;;;;;2.05;1.95;;;;;;;;;;1802698;78;26260;-83
2022/03/14 01:04:46;;;;;;;1.95;1.82;;;;;;;;;;1782193;78;26279;-81
2022/03/14 01:07:13;;;;;;;2.00;1.90;;;;;;;;;;1769659;78;26424;-81
2022/03/14 01:09:40;;;;;;;2.00;1.90;;;;;;;;;;1766816;80;26263;-83
2022/03/14 01:12:08;;;;;;;2.45;2.35;;;;;;;;;;1782741;78;26881;-82
2022/03/14 01:14:35;;;;;;;2.17;2.08;;;;;;;;;;1789755;78;26272;-82
2022/03/14 01:17:03;;;;;;;2.40;2.20;;;;;;;;;;1789874;78;26275;-83
2022/03/14 01:19:30;;;;;;;1.87;1.77;;;;;;;;;;1780864;78;26734;-83
2022/03/14 01:21:57;;;;;;;2.17;2.00;;;;;;;;;;1792641;78;26727;-83
2022/03/14 01:24:25;;;;;;;2.10;2.00;;;;;;;;;;1791259;78;26325;-83
2022/03/14 01:26:52;;;;;;;2.10;1.90;;;;;;;;;;1799112;78;26256;-86
2022/03/14 01:29:20;;;;;;;3.55;1.85;;;;;;;;;;1788606;78;26249;-82
2022/03/14 01:31:48;;;;;;;2.00;1.90;;;;;;;;;;1806938;78;26331;-82
2022/03/14 01:34:15;;;;;;;1.90;1.80;;;;;;;;;;1796117;78;26336;-84
2022/03/14 01:36:42;;;;;;;1.85;1.75;;;;;;;;;;1797654;78;26353;-83
2022/03/14 01:39:09;;;;;;;2.10;2.00;;;;;;;;;;1806853;78;26253;-84
2022/03/14 01:41:37;;;;;;;1.90;1.80;;;;;;;;;;1807170;78;26267;-82
2022/03/14 01:44:04;;;;;;;2.00;1.90;;;;;;;;;;1816033;78;26244;-82
2022/03/14 01:46:32;;;;;;;2.45;1.90;;;;;;;;;;1797237;78;26318;-83
2022/03/14 01:49:00;;;;;;;1.95;1.85;;;;;;;;;;1799272;78;26774;-83
2022/03/14 01:51:27;;;;;;;1.87;1.77;;;;;;;;;;1808772;78;26281;-84
2022/03/14 01:53:54;;;;;;;1.57;1.57;;;;;;;;;;1816867;78;26307;-83
2022/03/14 01:56:22;;;;;;;1.95;1.85;;;;;;;;;;1802822;79;26216;-82
2022/03/14 01:58:52;;;;;;;1.95;1.77;;;;;;;;;;1804266;78;26290;-83
2022/03/14 02:01:22;;;;;;;1.80;1.70;;;;;;;;;;1808946;78;26259;-82
2022/03/14 02:03:50;;;;;;;1.77;1.67;;;;;;;;;;1796705;78;26240;-84
2022/03/14 02:06:19;;;;;;;2.02;1.92;;;;;;;;;;1799336;78;26404;-82
2022/03/14 02:08:46;;;;;;;4.10;1.95;;;;;;;;;;1807473;79;26244;-82
2022/03/14 02:11:13;;;;;;;1.92;1.82;;;;;;;;;;1804013;78;26259;-81
2022/03/14 02:13:41;;;;;;;1.92;1.82;;;;;;;;;;1804500;78;26313;-82
2022/03/14 02:16:08;;;;;;;1.85;1.75;;;;;;;;;;1799037;78;26293;-89
2022/03/14 02:18:35;;;;;;;2.17;1.98;;;;;;;;;;1803091;78;26779;-87
2022/03/14 02:21:03;;;;;;;2.20;2.00;;;;;;;;;;1807359;78;26358;-83
2022/03/14 02:23:30;;;;;;;1.72;1.62;;;;;;;;;;1794252;78;26279;-85
2022/03/14 02:25:57;;;;;;;1.75;1.65;;;;;;;;;;1797037;78;26412;-88
2022/03/14 02:28:26;;;;;;;1.72;1.62;;;;;;;;;;1811016;78;26225;-87
2022/03/14 02:30:53;;;;;;;1.90;1.80;;;;;;;;;;1809854;78;26912;-87
2022/03/14 02:33:21;;;;;;;1.90;1.80;;;;;;;;;;1799702;78;26402;-84
2022/03/14 02:35:49;;;;;;;3.65;1.62;;;;;;;;;;1818345;78;26388;-86
2022/03/14 02:38:18;;;;;;;2.00;1.80;;;;;;;;;;1807572;78;26688;-88
2022/03/14 02:40:47;;;;;;;1.70;1.60;;;;;;;;;;1799159;78;26417;-85
2022/03/14 02:43:15;;;;;;;1.90;1.80;;;;;;;;;;1800929;78;26974;-87
2022/03/14 02:45:46;;;;;;;1.80;1.70;;;;;;;;;;1810059;78;26300;-85
2022/03/14 02:48:13;;;;;;;2.25;2.08;;;;;;;;;;1811686;78;26630;-85
2022/03/14 02:50:42;;;;;;;1.98;1.87;;;;;;;;;;1801095;78;26693;-83
2022/03/14 02:53:14;;;;;;;2.20;1.92;;;;;;;;;;1811886;78;26307;-86
2022/03/14 02:55:41;;;;;;;1.92;1.70;;;;;;;;;;1800732;78;26719;-84
2022/03/14 02:58:08;;;;;;;2.10;2.00;;;;;;;;;;1829146;78;26335;-82
2022/03/14 03:00:36;;;;;;;1.72;1.62;;;;;;;;;;1811575;78;26374;-82
2022/03/14 03:03:06;;;;;;;1.92;1.82;;;;;;;;;;1777444;79;26380;-82
2022/03/14 03:05:36;;;;;;;2.10;2.00;;;;;;;;;;1814963;78;26793;-85
2022/03/14 03:08:03;;;;;;;1.98;1.87;;;;;;;;;;1790065;78;26265;-83
2022/03/14 03:10:34;;;;;;;1.77;1.67;;;;;;;;;;1811343;79;26467;-84
2022/03/14 03:13:00;;;;;;;2.52;1.95;;;;;;;;;;1809058;79;26843;-85
2022/03/14 03:15:27;;;;;;;2.02;1.92;;;;;;;;;;1819634;78;26364;-83
2022/03/14 03:17:54;;;;;;;1.85;1.77;;;;;;;;;;1793529;79;26402;-83
2022/03/14 03:20:22;;;;;;;3.27;2.10;;;;;;;;;;1811142;79;26257;-84
2022/03/14 03:22:50;;;;;;;2.25;2.00;;;;;;;;;;1810031;78;26894;-82
2022/03/14 03:25:18;;;;;;;1.90;1.80;;;;;;;;;;1821025;78;26796;-84
2022/03/14 03:27:46;;;;;;;1.98;1.87;;;;;;;;;;1798913;78;26334;-85
2022/03/14 03:30:13;;;;;;;3.05;1.70;;;;;;;;;;1798553;78;26625;-83
2022/03/14 03:32:40;;;;;;;1.70;1.60;;;;;;;;;;1811950;79;26304;-87
2022/03/14 03:35:08;;;;;;;2.10;1.90;;;;;;;;;;1811980;79;26374;-85
2022/03/14 03:37:35;;;;;;;2.42;2.25;;;;;;;;;;1810735;79;26437;-81
2022/03/14 03:40:03;;;;;;;4.33;2.20;;;;;;;;;;1807005;78;26468;-83
2022/03/14 03:42:31;;;;;;;2.05;1.87;;;;;;;;;;1806319;78;26269;-82
2022/03/14 03:44:58;;;;;;;2.47;2.20;;;;;;;;;;1793488;79;26333;-83
2022/03/14 03:47:25;;;;;;;2.02;1.92;;;;;;;;;;1801237;79;26267;-82
2022/03/14 03:49:52;;;;;;;2.42;2.22;;;;;;;;;;1800152;78;26254;-83
2022/03/14 03:52:20;;;;;;;2.30;2.10;;;;;;;;;;1814198;78;26272;-82
2022/03/14 03:54:47;;;;;;;2.42;2.20;;;;;;;;;;1809342;78;26328;-82
2022/03/14 03:57:14;;;;;;;2.87;2.08;;;;;;;;;;1806440;79;26688;-82
2022/03/14 03:59:42;;;;;;;2.72;2.02;;;;;;;;;;1809590;79;26279;-82
2022/03/14 04:02:09;;;;;;;2.90;2.20;;;;;;;;;;1805788;78;26341;-82
2022/03/14 04:04:37;;;;;;;2.00;1.90;;;;;;;;;;1796816;78;26266;-84
2022/03/14 04:07:06;;;;;;;3.00;2.27;;;;;;;;;;1814307;78;26220;-82
2022/03/14 04:09:33;;;;;;;2.00;1.90;;;;;;;;;;1804734;78;26314;-84
2022/03/14 04:12:00;;;;;;;2.30;2.00;;;;;;;;;;1798649;78;26712;-84
2022/03/14 04:14:28;;;;;;;2.65;2.20;;;;;;;;;;1806176;78;26311;-82
2022/03/14 04:16:55;;;;;;;3.27;2.17;;;;;;;;;;1810353;78;26247;-82
2022/03/14 04:19:22;;;;;;;3.98;2.60;;;;;;;;;;1815022;78;26270;-84
2022/03/14 04:21:52;;;;;;;2.15;1.95;;;;;;;;;;1785475;79;26278;-83
2022/03/14 04:24:19;;;;;;;2.83;2.62;;;;;;;;;;1807952;79;26427;-82
2022/03/14 04:26:47;;;;;;;2.42;2.22;;;;;;;;;;1801944;78;26318;-82
2022/03/14 04:29:15;;;;;;;2.30;2.20;;;;;;;;;;1811617;78;26248;-82
2022/03/14 04:31:42;;;;;;;2.50;2.30;;;;;;;;;;1798875;78;26212;-84
2022/03/14 04:34:10;;;;;;;2.30;2.10;;;;;;;;;;1805776;79;26305;-82
2022/03/14 04:36:37;;;;;;;4.20;2.22;;;;;;;;;;1807346;78;26419;-82
2022/03/14 04:39:04;;;;;;;2.30;2.10;;;;;;;;;;1798805;79;26746;-82
2022/03/14 04:41:37;;;;;;;2.17;2.08;;;;;;;;;;1801646;78;26784;-82
2022/03/14 04:44:01;;;;;;;2.30;2.20;;;;;;;;;;1807345;78;26767;-87
2022/03/14 04:46:28;;;;;;;2.42;2.22;;;;;;;;;;1802081;78;26273;-83
2022/03/14 04:48:55;;;;;;;2.30;2.20;;;;;;;;;;1817897;78;26223;-85
2022/03/14 04:51:23;;;;;;;3.22;2.33;;;;;;;;;;1802703;78;26352;-88
2022/03/14 04:53:50;;;;;;;3.50;2.62;;;;;;;;;;1809924;78;26240;-84
2022/03/14 04:56:17;;;;;;;2.60;2.40;;;;;;;;;;1791612;78;26282;-82
2022/03/14 04:58:44;;;;;;;3.20;2.30;;;;;;;;;;1823492;78;26696;-83
2022/03/14 05:01:12;;;;;;;2.40;2.10;;;;;;;;;;1827068;78;26249;-84
2022/03/14 05:03:39;;;;;;;2.30;2.20;;;;;;;;;;1797196;78;26343;-82
2022/03/14 05:06:06;;;;;;;2.60;2.40;;;;;;;;;;1804382;78;26315;-86
2022/03/14 05:08:33;;;;;;;2.50;2.35;;;;;;;;;;1815351;78;26375;-82
2022/03/14 05:11:01;;;;;;;3.72;2.60;;;;;;;;;;1819616;78;26532;-82
2022/03/14 05:13:28;;;;;;;3.05;2.20;;;;;;;;;;1810584;79;26874;-84
2022/03/14 05:15:55;;;;;;;3.27;2.75;;;;;;;;;;1798629;78;26340;-83
2022/03/14 05:18:23;;;;;;;3.22;2.20;;;;;;;;;;1816727;77;26256;-85
2022/03/14 05:20:50;;;;;;;3.27;2.45;;;;;;;;;;1807050;78;26245;-84
2022/03/14 05:23:17;;;;;;;2.60;2.40;;;;;;;;;;1812951;78;26259;-82
2022/03/14 05:25:44;;;;;;;2.50;2.30;;;;;;;;;;1802721;78;26386;-83
2022/03/14 05:28:12;;;;;;;2.55;2.35;;;;;;;;;;1802983;79;26806;-82
2022/03/14 05:30:39;;;;;;;2.80;2.60;;;;;;;;;;1810497;78;26959;-82
2022/03/14 05:33:06;;;;;;;3.00;2.40;;;;;;;;;;1802074;78;26309;-84
2022/03/14 05:35:34;;;;;;;3.75;2.27;;;;;;;;;;1799337;78;26442;-84
2022/03/14 05:38:01;;;;;;;5.60;2.52;;;;;;;;;;1798477;78;26409;-85
2022/03/14 05:40:28;;;;;;;2.72;2.50;;;;;;;;;;1791100;78;26827;-84
2022/03/14 05:42:55;;;;;;;3.17;2.83;;;;;;;;;;1792072;78;26241;-82
2022/03/14 05:45:23;;;;;;;2.33;2.22;;;;;;;;;;1783781;78;26353;-84
2022/03/14 05:47:51;;;;;;;2.45;2.30;;;;;;;;;;1796237;78;26463;-83
2022/03/14 05:50:19;;;;;;;3.62;2.50;;;;;;;;;;1783727;78;26338;-82
2022/03/14 05:52:47;;;;;;;2.37;2.25;;;;;;;;;;1793170;78;26288;-83
2022/03/14 05:55:14;;;;;;;2.80;2.58;;;;;;;;;;1766982;79;26321;-86
2022/03/14 05:57:42;;;;;;;3.75;2.70;;;;;;;;;;1791932;78;26251;-84
2022/03/14 06:00:10;;;;;;;2.50;2.40;;;;;;;;;;1789727;78;26380;-82
2022/03/14 06:02:38;;;;;;;2.50;2.30;;;;;;;;;;1805815;78;26346;-84
2022/03/14 06:05:05;;;;;;;2.42;2.33;;;;;;;;;;1791944;78;26334;-82
2022/03/14 06:07:33;;;;;;;2.20;2.10;;;;;;;;;;1780872;80;26284;-82
2022/03/14 06:10:00;;;;;;;2.27;2.17;;;;;;;;;;1786979;79;26341;-82
2022/03/14 06:12:28;;;;;;;2.37;2.17;;;;;;;;;;1794612;78;26258;-83
2022/03/14 06:14:56;;;;;;;2.80;2.22;;;;;;;;;;1803888;78;26815;-84
2022/03/14 06:17:24;;;;;;;2.72;2.50;;;;;;;;;;1785054;78;26287;-84
2022/03/14 06:19:51;;;;;;;2.55;2.45;;;;;;;;;;1792877;78;26306;-83
2022/03/14 06:22:19;;;;;;;3.47;2.20;;;;;;;;;;1805007;78;26257;-82
2022/03/14 06:24:47;;;;;;;4.20;2.40;;;;;;;;;;1800017;78;26261;-84
2022/03/14 06:27:15;;;;;;;3.62;2.35;;;;;;;;;;1799723;79;26363;-83
2022/03/14 06:29:43;;;;;;;2.40;2.20;;;;;;;;;;1784081;79;26338;-83
2022/03/14 06:32:11;;;;;;;3.92;2.47;;;;;;;;;;1792501;80;26882;-83
2022/03/14 06:34:38;;;;;;;2.67;2.37;;;;;;;;;;1777401;78;26260;-82
2022/03/14 06:37:09;;;;;;;2.98;2.47;;;;;;;;;;1782762;80;26810;-83
2022/03/14 06:39:36;;;;;;;4.85;2.35;;;;;;;;;;1799307;79;26334;-82
2022/03/14 06:42:06;;;;;;;6.08;2.40;;;;;;;;;;1795520;79;26287;-84
2022/03/14 06:44:35;;;;;;;4.97;2.33;;;;;;;;;;1821885;78;26318;-83
2022/03/14 06:47:02;;;;;;;4.97;2.30;;;;;;;;;;1801560;79;26326;-84
2022/03/14 06:49:30;;;;;;;3.10;2.30;;;;;;;;;;1810305;78;26788;-86
2022/03/14 06:51:57;;;;;;;4.12;2.12;;;;;;;;;;1812797;78;26330;-85
2022/03/14 06:54:25;;;;;;;6.10;2.20;;;;;;;;;;1805382;79;26358;-87
2022/03/14 06:56:53;;;;;;;10.70;2.80;;;;;;;;;;1802894;78;26793;-84
2022/03/14 06:59:20;;;;;;;7.03;2.70;;;;;;;;;;1805127;79;26329;-82
2022/03/14 07:01:48;;;;;;;6.20;2.70;;;;;;;;;;1802265;78;26395;-83
2022/03/14 07:04:15;;;;;;;5.08;2.35;;;;;;;;;;1794205;78;26254;-83
2022/03/14 07:06:43;;;;;;;4.55;2.67;;;;;;;;;;1801570;78;26426;-83
2022/03/14 07:09:10;;;;;;;2.85;2.22;;;;;;;;;;1795944;78;26383;-85
2022/03/14 07:11:37;;;;;;;11.05;2.98;;;;;;;;;;1804252;79;26239;-84
2022/03/14 07:14:04;;;;;;;5.55;2.33;;;;;;;;;;1810551;79;26299;-83
2022/03/14 07:16:32;;;;;;;7.25;2.52;;;;;;;;;;1796031;79;26392;-82
2022/03/14 07:18:59;;;;;;;6.12;2.37;;;;;;;;;;1805373;79;26341;-82
2022/03/14 07:21:29;;;;;;;4.25;2.50;;;;;;;;;;1796610;79;26578;-83
2022/03/14 07:23:57;;;;;;;4.03;2.22;;;;;;;;;;1802875;78;26424;-82
2022/03/14 07:26:24;;;;;;;9.60;2.12;;;;;;;;;;1810476;79;26788;-88
2022/03/14 07:28:52;;;;;;;4.75;2.20;;;;;;;;;;1793178;79;26282;-83
2022/03/14 07:31:25;;;;;;;5.05;2.20;;;;;;;;;;1809008;79;26260;-84
2022/03/14 07:33:49;;;;;;;2.92;2.12;;;;;;;;;;1804738;79;26342;-84
2022/03/14 07:36:16;;;;;;;5.80;2.40;;;;;;;;;;1782880;78;26825;-85
2022/03/14 07:38:44;;;;;;;5.87;2.25;;;;;;;;;;1790698;79;26316;-84
2022/03/14 07:41:11;;;;;;;8.55;2.00;;;;;;;;;;1781412;80;26279;-84
2022/03/14 07:43:40;;;;;;;4.83;1.92;;;;;;;;;;1787424;78;26262;-82
2022/03/14 07:46:07;;;;;;;9.33;2.42;;;;;;;;;;1782968;78;26294;-85
2022/03/14 07:48:35;;;;;;;5.17;2.15;;;;;;;;;;1781600;78;26656;-84
2022/03/14 07:51:08;;;;;;;3.90;2.22;;;;;;;;;;1774300;80;26332;-83
2022/03/14 07:53:31;;;;;;;2.70;2.20;;;;;;;;;;1785238;79;26331;-86
2022/03/14 07:55:58;;;;;;;3.10;2.22;;;;;;;;;;1794170;79;26272;-84
2022/03/14 07:58:26;;;;;;;1.90;1.80;;;;;;;;;;1792198;80;26417;-85
2022/03/14 08:00:54;;;;;;;3.87;2.20;;;;;;;;;;1789247;78;26737;-84
2022/03/14 08:03:22;;;;;;;2.10;1.90;;;;;;;;;;1824315;78;26311;-84
2022/03/14 08:06:00;;;;;;;2.75;1.85;;;;;;;;;;1823450;78;26293;-84
2022/03/14 08:08:18;;;;;;;2.00;1.90;;;;;;;;;;1823446;78;26619;-84
2022/03/14 08:10:47;;;;;;;2.00;1.90;;;;;;;;;;1825560;78;26701;-83
2022/03/14 08:13:14;;;;;;;1.72;1.62;;;;;;;;;;1782973;78;26349;-83
2022/03/14 08:15:42;;;;;;;2.90;1.87;;;;;;;;;;1767075;81;26285;-83
2022/03/14 08:18:10;;;;;;;1.90;1.80;;;;;;;;;;1767350;81;26275;-84
2022/03/14 08:20:37;;;;;;;2.02;1.80;;;;;;;;;;1767507;81;26345;-84
2022/03/14 08:23:05;;;;;;;1.82;1.72;;;;;;;;;;1767620;81;26426;-83
2022/03/14 08:25:38;;;;;;;1.90;1.80;;;;;;;;;;1773054;79;26326;-84
2022/03/14 08:28:03;;;;;;;1.80;1.70;;;;;;;;;;1780264;80;26327;-84
2022/03/14 08:30:30;;;;;;;1.80;1.70;;;;;;;;;;1783899;80;26324;-84
2022/03/14 08:32:59;;;;;;;1.70;1.60;;;;;;;;;;1767379;81;26270;-83
2022/03/14 08:35:27;;;;;;;3.27;1.82;;;;;;;;;;1767336;81;26663;-83
2022/03/14 08:37:55;;;;;;;1.75;1.65;;;;;;;;;;1767347;81;26807;-83
2022/03/14 08:40:23;;;;;;;3.35;1.75;;;;;;;;;;1824807;78;26375;-83
2022/03/14 08:42:52;;;;;;;2.60;1.70;;;;;;;;;;1804113;78;26763;-83
2022/03/14 08:45:20;;;;;;;1.90;1.80;;;;;;;;;;1796432;79;26284;-85
2022/03/14 08:47:47;;;;;;;1.62;1.52;;;;;;;;;;1794404;78;26356;-84
2022/03/14 08:50:15;;;;;;;2.45;1.62;;;;;;;;;;1770874;80;26333;-83
2022/03/14 08:52:42;;;;;;;1.75;1.60;;;;;;;;;;1822363;78;26313;-83
2022/03/14 08:55:10;;;;;;;1.47;1.37;;;;;;;;;;1826537;78;26807;-86
2022/03/14 08:57:37;;;;;;;1.67;1.57;;;;;;;;;;1826726;78;26270;-83
2022/03/14 09:00:06;;;;;;;1.37;1.37;;;;;;;;;;1826140;78;26354;-84
2022/03/14 09:02:33;;;;;;;1.27;1.27;;;;;;;;;;1815130;78;26246;-83
2022/03/14 09:05:00;;;;;;;1.50;1.40;;;;;;;;;;1791542;78;26379;-83
2022/03/14 09:07:28;;;;;;;1.52;1.42;;;;;;;;;;1793080;78;26264;-83
2022/03/14 09:09:59;;;;;;;1.20;1.20;;;;;;;;;;1795839;80;26274;-85
2022/03/14 09:12:26;;;;;;;1.55;1.45;;;;;;;;;;1796078;78;26809;-84
2022/03/14 09:14:53;;;;;;;1.20;1.20;;;;;;;;;;1825456;78;26813;-83
2022/03/14 09:17:21;;;;;;;1.50;1.40;;;;;;;;;;1798749;78;26346;-84
2022/03/14 09:19:48;;;;;;;1.30;1.30;;;;;;;;;;1797070;80;26308;-85
2022/03/14 09:22:18;;;;;;;1.35;1.35;;;;;;;;;;1796828;80;26379;-83
2022/03/14 09:24:47;;;;;;;1.20;1.20;;;;;;;;;;1796253;80;26336;-83
2022/03/14 09:27:13;;;;;;;1.47;1.37;;;;;;;;;;1811118;78;26345;-83
2022/03/14 09:29:40;;;;;;;1.30;1.30;;;;;;;;;;1795369;80;26237;-83
2022/03/14 09:32:08;;;;;;;1.60;1.50;;;;;;;;;;1795522;80;26304;-83
2022/03/14 09:34:36;;;;;;;1.40;1.30;;;;;;;;;;1795468;80;26273;-83
2022/03/14 09:37:04;;;;;;;1.20;1.20;;;;;;;;;;1795543;80;26299;-83
2022/03/14 09:39:32;;;;;;;1.30;1.30;;;;;;;;;;1782448;78;26262;-84
2022/03/14 09:42:01;;;;;;;1.22;1.10;;;;;;;;;;1793333;79;26341;-83
2022/03/14 09:44:29;;;;;;;1.12;1.12;;;;;;;;;;1810431;79;26771;-83
2022/03/14 09:46:58;;;;;;;1.17;1.17;;;;;;;;;;1810713;79;26342;-84
2022/03/14 09:49:27;;;;;;;1.35;1.25;;;;;;;;;;1811978;78;26207;-84
2022/03/14 09:51:54;;;;;;;1.40;1.30;;;;;;;;;;1791428;78;26316;-83
2022/03/14 09:54:22;;;;;;;1.25;1.25;;;;;;;;;;1807356;78;26762;-83
2022/03/14 09:56:49;;;;;;;1.10;1.10;;;;;;;;;;1791477;80;26271;-84
2022/03/14 09:59:16;;;;;;;1.32;1.20;;;;;;;;;;1791081;79;26248;-84
2022/03/14 10:01:43;;;;;;;1.20;1.20;;;;;;;;;;1829334;78;26202;-83
2022/03/14 10:04:12;;;;;;;1.20;1.20;;;;;;;;;;1840977;78;26333;-83
2022/03/14 10:06:40;;;;;;;1.30;1.30;;;;;;;;;;1842120;78;26395;-84
2022/03/14 10:09:08;;;;;;;1.30;1.30;;;;;;;;;;1844123;78;26321;-83
2022/03/14 10:11:35;;;;;;;1.30;1.20;;;;;;;;;;1829173;78;26232;-84
2022/03/14 10:14:06;;;;;;;1.10;1.10;;;;;;;;;;1814343;79;26284;-84
2022/03/14 10:16:33;;;;;;;1.30;1.20;;;;;;;;;;1814508;78;26361;-86
2022/03/14 10:19:07;;;;;;;1.40;1.30;;;;;;;;;;1801181;80;26422;-84
2022/03/14 10:21:37;;;;;;;1.37;1.27;;;;;;;;;;1801729;79;26337;-83
2022/03/14 10:24:06;;;;;;;1.30;1.30;;;;;;;;;;1801307;80;26325;-84
2022/03/14 10:26:33;;;;;;;1.17;1.17;;;;;;;;;;1801909;79;26267;-83
2022/03/14 10:29:01;;;;;;;1.27;1.27;;;;;;;;;;1804961;78;26624;-85
2022/03/14 10:31:34;;;;;;;1.42;1.32;;;;;;;;;;1835648;78;26829;-85
2022/03/14 10:34:06;;;;;;;1.25;1.25;;;;;;;;;;1842122;78;26867;-86
2022/03/14 10:36:46;;;;;;;1.27;1.20;;;;;;;;;;1841404;78;26208;-84
2022/03/14 10:39:21;;;;;;;1.20;1.20;;;;;;;;;;1841105;78;26298;-83
2022/03/14 10:42:08;;;;;;;1.35;1.25;;;;;;;;;;1814213;78;26271;-83
2022/03/14 10:44:36;;;;;;;1.20;1.20;;;;;;;;;;1811103;79;26330;-83
2022/03/14 10:47:05;;;;;;;1.30;1.30;;;;;;;;;;1811170;79;26718;-84
2022/03/14 10:49:33;;;;;;;1.55;1.45;;;;;;;;;;1833189;78;26233;-85
2022/03/14 10:52:02;;;;;;;1.27;1.27;;;;;;;;;;1841773;78;26319;-87
2022/03/14 10:54:30;;;;;;;1.50;1.50;;;;;;;;;;1841634;78;26267;-84
2022/03/14 10:57:08;;;;;;;1.27;1.27;;;;;;;;;;1841629;78;26770;-84
2022/03/14 10:59:42;;;;;;;1.40;1.40;;;;;;;;;;1841975;78;26371;-85
2022/03/14 11:02:11;;;;;;;1.20;1.20;;;;;;;;;;1832707;78;26280;-84
2022/03/14 11:04:48;;;;;;;1.60;1.47;;;;;;;;;;1811442;79;26285;-86
2022/03/14 11:07:17;;;;;;;1.57;1.57;;;;;;;;;;1811528;79;26335;-84
2022/03/14 11:09:45;;;;;;;1.37;1.37;;;;;;;;;;1811676;79;26292;-83
2022/03/14 11:12:14;;;;;;;1.35;1.35;;;;;;;;;;1811556;78;26279;-83
2022/03/14 11:14:42;;;;;;;1.32;1.32;;;;;;;;;;1811641;79;26725;-84
2022/03/14 11:17:10;;;;;;;1.75;1.65;;;;;;;;;;1809904;79;26237;-83
2022/03/14 11:19:38;;;;;;;1.67;1.67;;;;;;;;;;1799554;78;26239;-84
2022/03/14 11:22:07;;;;;;;1.45;1.45;;;;;;;;;;1816570;79;26197;-84
2022/03/14 11:24:35;;;;;;;1.70;1.60;;;;;;;;;;1801621;79;26279;-84
2022/03/14 11:27:03;;;;;;;1.62;1.60;;;;;;;;;;1791958;80;26267;-84
2022/03/14 11:29:32;;;;;;;1.85;1.75;;;;;;;;;;1809007;79;26420;-83
2022/03/14 11:32:00;;;;;;;1.90;1.80;;;;;;;;;;1795557;78;26270;-83
2022/03/14 11:34:29;;;;;;;1.98;1.87;;;;;;;;;;1794257;79;26275;-84
2022/03/14 11:36:58;;;;;;;2.25;2.15;;;;;;;;;;1802045;79;26243;-85
2022/03/14 11:39:26;;;;;;;2.20;2.10;;;;;;;;;;1809689;79;26285;-84
2022/03/14 11:41:55;;;;;;;2.00;1.90;;;;;;;;;;1799416;79;26326;-83
2022/03/14 11:44:24;;;;;;;2.15;2.05;;;;;;;;;;1823050;78;26673;-84
2022/03/14 11:46:52;;;;;;;2.00;1.90;;;;;;;;;;1826432;78;26268;-84
2022/03/14 11:49:20;;;;;;;2.10;2.00;;;;;;;;;;1826349;78;26253;-85
2022/03/14 11:51:48;;;;;;;2.08;1.98;;;;;;;;;;1826505;78;26246;-85
2022/03/14 11:54:15;;;;;;;2.17;2.08;;;;;;;;;;1808613;78;26252;-85
2022/03/14 11:56:53;;;;;;;2.22;2.12;;;;;;;;;;1824748;78;26260;-84
2022/03/14 11:59:27;;;;;;;2.50;2.40;;;;;;;;;;1778834;80;26275;-84
2022/03/14 12:02:00;;;;;;;2.40;2.30;;;;;;;;;;1810587;78;26763;-84
2022/03/14 12:04:28;;;;;;;2.42;2.22;;;;;;;;;;1823281;78;26402;-84
2022/03/14 12:07:03;;;;;;;2.65;2.55;;;;;;;;;;1786535;78;26310;-86
2022/03/14 12:09:27;;;;;;;2.85;2.70;;;;;;;;;;1778349;80;26877;-83
2022/03/14 12:11:55;;;;;;;2.60;2.50;;;;;;;;;;1778916;80;26257;-84
2022/03/14 12:14:34;;;;;;;3.00;2.80;;;;;;;;;;1796472;80;26724;-84
2022/03/14 12:17:15;;;;;;;2.95;2.75;;;;;;;;;;1764085;79;26237;-83
2022/03/14 12:19:44;;;;;;;2.58;2.47;;;;;;;;;;1795963;78;26782;-83
2022/03/14 12:22:16;;;;;;;3.00;2.80;;;;;;;;;;1790061;80;26785;-84
2022/03/14 12:24:44;;;;;;;3.08;2.87;;;;;;;;;;1789828;80;26399;-84
2022/03/14 12:27:19;;;;;;;2.95;2.85;;;;;;;;;;1793217;79;26293;-84
2022/03/14 12:29:47;;;;;;;3.50;3.20;;;;;;;;;;1821084;79;26293;-83
2022/03/14 12:32:19;;;;;;;2.98;2.83;;;;;;;;;;1816266;78;26282;-83
2022/03/14 12:34:48;;;;;;;3.47;3.17;;;;;;;;;;1789515;80;26235;-83
2022/03/14 12:37:28;;;;;;;2.90;2.70;;;;;;;;;;1788954;80;26305;-84
2022/03/14 12:39:56;;;;;;;3.50;3.30;;;;;;;;;;1788936;80;26323;-83
2022/03/14 12:42:25;;;;;;;3.30;3.10;;;;;;;;;;1800783;79;26316;-84
2022/03/14 12:45:11;;;;;;;3.67;3.37;;;;;;;;;;1815815;78;26295;-83
2022/03/14 12:47:42;;;;;;;3.40;3.20;;;;;;;;;;1835225;78;26282;-85
2022/03/14 12:50:10;;;;;;;3.52;3.25;;;;;;;;;;1805751;78;26260;-84
2022/03/14 12:52:45;;;;;;;3.42;3.22;;;;;;;;;;1805228;79;26252;-83
2022/03/14 12:55:19;;;;;;;3.50;3.30;;;;;;;;;;1785062;79;26276;-83
2022/03/14 12:57:52;;;;;;;3.65;3.40;;;;;;;;;;1806874;78;26632;-84
2022/03/14 13:00:20;;;;;;;3.70;3.40;;;;;;;;;;1808746;78;26319;-84
2022/03/14 13:02:47;;;;;;;3.80;3.37;;;;;;;;;;1834872;78;26261;-83
2022/03/14 13:05:16;;;;;;;3.72;3.42;;;;;;;;;;1825471;78;26389;-84
2022/03/14 13:07:43;;;;;;;3.98;3.67;;;;;;;;;;1804851;79;26268;-83
2022/03/14 13:10:12;;;;;;;3.80;3.60;;;;;;;;;;1821232;78;26841;-84
2022/03/14 13:12:40;;;;;;;4.00;3.70;;;;;;;;;;1814497;78;26854;-84
2022/03/14 13:15:09;;;;;;;3.80;3.50;;;;;;;;;;1802063;78;26272;-84
2022/03/14 13:17:38;;;;;;;4.15;3.85;;;;;;;;;;1803272;79;26661;-83
2022/03/14 13:20:23;;;;;;;3.95;3.65;;;;;;;;;;1802462;79;26322;-83
2022/03/14 13:22:51;;;;;;;3.95;3.65;;;;;;;;;;1823865;78;26353;-84
2022/03/14 13:25:35;;;;;;;4.20;3.90;;;;;;;;;;1834906;78;26247;-83
2022/03/14 13:28:03;;;;;;;4.20;3.90;;;;;;;;;;1827951;78;26669;-84
2022/03/14 13:30:41;;;;;;;4.03;3.70;;;;;;;;;;1814423;78;26771;-84
2022/03/14 13:33:29;;;;;;;4.45;4.08;;;;;;;;;;1804221;79;26252;-84
2022/03/14 13:35:57;;;;;;;4.65;4.25;;;;;;;;;;1834042;78;26876;-83
2022/03/14 13:38:31;;;;;;;4.33;3.95;;;;;;;;;;1832581;78;26919;-83
2022/03/14 13:40:59;;;;;;;4.22;3.83;;;;;;;;;;1833886;78;26287;-84
2022/03/14 13:43:26;;;;;;;4.50;4.10;;;;;;;;;;1790605;78;26276;-83
2022/03/14 13:45:56;;;;;;;4.45;4.15;;;;;;;;;;1795359;78;26308;-83
2022/03/14 13:48:23;;;;;;;4.62;4.30;;;;;;;;;;1784588;79;26968;-83
2022/03/14 13:50:50;;;;;;;4.30;4.00;;;;;;;;;;1767311;81;26302;-84
2022/03/14 13:53:22;;;;;;;4.20;3.90;;;;;;;;;;1767241;80;26244;-83
2022/03/14 13:55:53;;;;;;;4.60;4.20;;;;;;;;;;1767006;81;26719;-83
2022/03/14 13:58:25;;;;;;;4.83;4.42;;;;;;;;;;1767242;81;26315;-84
2022/03/14 14:00:52;;;;;;;5.03;4.62;;;;;;;;;;1796500;78;26360;-84
2022/03/14 14:03:26;;;;;;;4.80;4.40;;;;;;;;;;1780929;80;26967;-83
2022/03/14 14:05:53;;;;;;;5.00;4.60;;;;;;;;;;1776250;81;26366;-84
2022/03/14 14:08:36;;;;;;;4.37;4.05;;;;;;;;;;1777953;80;26366;-84
2022/03/14 14:11:03;;;;;;;4.90;4.50;;;;;;;;;;1795070;80;26252;-84
2022/03/14 14:13:49;;;;;;;5.30;4.80;;;;;;;;;;1780160;79;26344;-83
2022/03/14 14:16:18;;;;;;;5.00;4.60;;;;;;;;;;1778415;80;26736;-83
2022/03/14 14:18:45;;;;;;;5.20;4.80;;;;;;;;;;1779055;81;26290;-83
2022/03/14 14:21:22;;;;;;;5.47;4.97;;;;;;;;;;1778461;80;26338;-83
2022/03/14 14:23:50;;;;;;;5.20;4.80;;;;;;;;;;1783783;78;26418;-84
2022/03/14 14:26:18;;;;;;;5.00;4.60;;;;;;;;;;1825652;78;26261;-84
2022/03/14 14:28:46;;;;;;;5.58;5.08;;;;;;;;;;1796825;78;26340;-84
2022/03/14 14:31:22;;;;;;;5.05;4.55;;;;;;;;;;1793728;80;26756;-84
2022/03/14 14:33:50;;;;;;;5.40;4.90;;;;;;;;;;1796028;80;26276;-85
2022/03/14 14:36:18;;;;;;;5.92;5.40;;;;;;;;;;1802440;78;27045;-84
2022/03/14 14:38:46;;;;;;;5.78;5.28;;;;;;;;;;1817154;78;26862;-83
2022/03/14 14:41:13;;;;;;;5.45;4.97;;;;;;;;;;1796136;79;26964;-84
2022/03/14 14:43:43;;;;;;;6.30;5.55;;;;;;;;;;1821735;79;26302;-83
2022/03/14 14:46:09;;;;;;;5.60;5.10;;;;;;;;;;1796884;79;26354;-84
2022/03/14 14:48:37;;;;;;;5.45;5.03;;;;;;;;;;1787688;79;26347;-84
2022/03/14 14:51:06;;;;;;;5.72;5.22;;;;;;;;;;1782736;80;26250;-84